createdAt,value
2023-02-27T00:02:00.556Z,5.18
2023-02-27T00:04:30.676Z,4.07
2023-02-27T00:06:57.447Z,5.33
2023-02-27T00:09:27.706Z,5.10
2023-02-27T00:11:54.261Z,4.80
2023-02-27T00:14:20.727Z,4.20
2023-02-27T00:16:47.151Z,4.17
2023-02-27T00:19:13.619Z,4.70
2023-02-27T00:21:41.098Z,3.93
2023-02-27T00:24:08.001Z,3.63
2023-02-27T00:26:34.438Z,4.43
2023-02-27T00:29:01.810Z,3.63
2023-02-27T00:31:30.205Z,3.17
2023-02-27T00:33:57.783Z,4.40
2023-02-27T00:36:24.415Z,4.67
2023-02-27T00:38:50.867Z,3.20
2023-02-27T00:41:19.479Z,4.90
2023-02-27T00:43:45.996Z,5.93
2023-02-27T00:46:12.501Z,5.70
2023-02-27T00:48:39.113Z,3.80
2023-02-27T00:51:05.768Z,5.47
2023-02-27T00:53:32.282Z,2.57
2023-02-27T00:55:58.757Z,3.33
2023-02-27T00:58:25.232Z,3.33
2023-02-27T01:00:51.751Z,4.23
2023-02-27T01:03:22.093Z,3.20
2023-02-27T01:05:48.587Z,4.00
2023-02-27T01:08:15.096Z,4.27
2023-02-27T01:10:43.756Z,3.07
2023-02-27T01:13:11.370Z,4.53
2023-02-27T01:15:37.992Z,4.50
2023-02-27T01:18:04.465Z,4.70
2023-02-27T01:20:30.926Z,4.60
2023-02-27T01:22:57.406Z,5.03
2023-02-27T01:25:23.893Z,3.63
2023-02-27T01:27:50.402Z,3.17
2023-02-27T01:30:17.124Z,4.90
2023-02-27T01:32:44.448Z,3.13
2023-02-27T01:35:11.116Z,5.57
2023-02-27T01:37:40.631Z,5.50
2023-02-27T01:40:08.282Z,4.13
2023-02-27T01:42:34.750Z,3.00
2023-02-27T01:45:13.112Z,4.27
2023-02-27T01:47:42.408Z,4.23
2023-02-27T01:50:09.557Z,3.97
2023-02-27T01:52:38.131Z,3.60
2023-02-27T01:55:11.511Z,5.43
2023-02-27T01:57:38.676Z,2.63
2023-02-27T02:00:08.460Z,4.47
2023-02-27T02:02:44.765Z,2.97
2023-02-27T02:05:14.998Z,3.23
2023-02-27T02:07:49.608Z,5.47
2023-02-27T02:10:17.757Z,6.28
2023-02-27T02:12:46.912Z,3.50
2023-02-27T02:15:13.380Z,4.73
2023-02-27T02:17:53.307Z,4.77
2023-02-27T02:20:47.611Z,4.50
2023-02-27T02:23:36.556Z,3.85
2023-02-27T02:26:33.515Z,4.83
2023-02-27T02:29:22.120Z,5.72
2023-02-27T02:32:07.111Z,4.35
2023-02-27T02:35:11.342Z,3.88
2023-02-27T02:38:05.897Z,3.83
2023-02-27T02:43:21.747Z,3.00
2023-02-27T02:46:15.427Z,4.53
2023-02-27T02:48:57.924Z,5.20
2023-02-27T02:51:36.709Z,5.13
2023-02-27T02:54:45.585Z,3.38
2023-02-27T02:57:41.207Z,3.08
2023-02-27T03:00:15.526Z,4.90
2023-02-27T03:02:48.060Z,3.55
2023-02-27T03:05:20.727Z,4.68
2023-02-27T03:08:19.592Z,5.60
2023-02-27T03:10:52.284Z,4.43
2023-02-27T03:13:31.525Z,4.13
2023-02-27T03:16:07.495Z,3.90
2023-02-27T03:18:37.936Z,5.28
2023-02-27T03:21:12.158Z,5.68
2023-02-27T03:23:47.134Z,4.32
2023-02-27T03:26:20.397Z,9.15
2023-02-27T03:28:55.676Z,4.63
2023-02-27T03:31:44.276Z,6.03
2023-02-27T03:34:20.597Z,6.90
2023-02-27T03:37:21.470Z,5.43
2023-02-27T03:40:13.869Z,5.57
2023-02-27T03:42:44.751Z,8.35
2023-02-27T03:45:35.199Z,6.35
2023-02-27T03:48:02.958Z,6.20
2023-02-27T03:50:29.938Z,5.35
2023-02-27T03:52:57.376Z,6.13
2023-02-27T03:55:33.265Z,7.75
2023-02-27T03:58:03.820Z,5.45
2023-02-27T04:00:30.415Z,8.70
2023-02-27T04:03:01.567Z,10.73
2023-02-27T04:05:30.128Z,7.75
2023-02-27T04:08:52.599Z,7.45
2023-02-27T04:11:27.977Z,5.35
2023-02-27T04:14:06.787Z,6.50
2023-02-27T04:16:54.491Z,7.35
2023-02-27T04:19:36.734Z,5.65
2023-02-27T04:22:12.331Z,5.88
2023-02-27T04:24:48.688Z,6.03
2023-02-27T04:27:24.488Z,3.15
2023-02-27T04:30:32.052Z,5.80
2023-02-27T04:33:15.657Z,5.90
2023-02-27T04:35:53.208Z,5.20
2023-02-27T04:38:27.594Z,3.58
2023-02-27T04:41:11.787Z,6.00
2023-02-27T04:43:39.483Z,5.05
2023-02-27T04:46:09.154Z,4.60
2023-02-27T04:48:40.078Z,4.40
2023-02-27T04:51:13.853Z,3.10
2023-02-27T04:53:45.743Z,5.10
2023-02-27T04:56:19.537Z,5.20
2023-02-27T04:58:52.724Z,8.98
2023-02-27T05:01:24.865Z,4.05
2023-02-27T05:03:52.922Z,4.55
2023-02-27T05:06:21.438Z,5.55
2023-02-27T05:09:17.750Z,6.40
2023-02-27T05:11:50.343Z,5.32
2023-02-27T05:14:20.478Z,4.47
2023-02-27T05:17:07.557Z,3.47
2023-02-27T05:19:36.798Z,10.38
2023-02-27T05:22:13.739Z,4.55
2023-02-27T05:24:50.189Z,5.07
2023-02-27T05:27:35.762Z,6.95
2023-02-27T05:30:27.166Z,4.55
2023-02-27T05:33:12.379Z,5.75
2023-02-27T05:36:15.190Z,5.32
2023-02-27T05:38:45.581Z,5.07
2023-02-27T05:41:22.109Z,3.13
2023-02-27T05:43:53.629Z,3.38
2023-02-27T05:46:27.629Z,4.43
2023-02-27T05:51:24.697Z,4.55
2023-02-27T05:53:57.994Z,4.65
2023-02-27T05:56:27.759Z,4.93
2023-02-27T05:59:01.456Z,4.70
2023-02-27T06:01:27.925Z,5.68
2023-02-27T06:03:54.708Z,4.75
2023-02-27T06:06:25.726Z,4.47
2023-02-27T06:08:52.437Z,6.00
2023-02-27T06:11:21.785Z,5.30
2023-02-27T06:13:52.696Z,5.03
2023-02-27T06:16:19.213Z,6.10
2023-02-27T06:18:45.710Z,5.43
2023-02-27T06:21:13.551Z,3.25
2023-02-27T06:23:40.268Z,5.82
2023-02-27T06:26:07.041Z,8.50
2023-02-27T06:28:33.585Z,3.63
2023-02-27T06:31:00.269Z,8.52
2023-02-27T06:33:26.848Z,5.47
2023-02-27T06:35:53.508Z,4.38
2023-02-27T06:38:21.260Z,5.47
2023-02-27T06:40:51.032Z,3.47
2023-02-27T06:43:17.481Z,3.72
2023-02-27T06:45:43.966Z,6.65
2023-02-27T06:48:14.817Z,5.45
2023-02-27T06:50:41.428Z,4.20
2023-02-27T06:53:07.950Z,3.35
2023-02-27T06:55:36.904Z,3.08
2023-02-27T06:58:03.358Z,4.07
2023-02-27T07:00:30.014Z,7.25
2023-02-27T07:02:56.519Z,5.22
2023-02-27T07:05:22.997Z,3.72
2023-02-27T07:07:49.582Z,4.85
2023-02-27T07:10:16.974Z,3.78
2023-02-27T07:12:43.446Z,6.05
2023-02-27T07:15:10.327Z,10.63
2023-02-27T07:17:37.815Z,5.25
2023-02-27T07:20:10.593Z,3.90
2023-02-27T07:22:38.119Z,7.85
2023-02-27T07:25:05.385Z,3.70
2023-02-27T07:27:32.508Z,8.80
2023-02-27T07:29:59.044Z,6.60
2023-02-27T07:32:25.624Z,5.78
2023-02-27T07:34:52.199Z,4.32
2023-02-27T07:37:18.833Z,3.00
2023-02-27T07:39:45.603Z,4.57
2023-02-27T07:42:12.247Z,4.13
2023-02-27T07:44:40.592Z,5.65
2023-02-27T07:47:07.093Z,5.32
2023-02-27T07:49:33.721Z,4.07
2023-02-27T07:52:00.675Z,2.67
2023-02-27T07:54:27.599Z,4.65
2023-02-27T07:56:54.161Z,6.65
2023-02-27T07:59:20.702Z,6.80
2023-02-27T08:01:47.263Z,3.80
2023-02-27T08:04:16.922Z,4.72
2023-02-27T08:06:43.469Z,2.50
2023-02-27T08:09:10.860Z,3.13
2023-02-27T08:11:37.331Z,5.38
2023-02-27T08:14:03.940Z,3.83
2023-02-27T08:16:36.580Z,6.00
2023-02-27T08:19:06.033Z,5.00
2023-02-27T08:21:32.494Z,2.67
2023-02-27T08:23:59.007Z,3.70
2023-02-27T08:26:25.938Z,4.68
2023-02-27T08:28:52.719Z,4.03
2023-02-27T08:31:19.409Z,4.20
2023-02-27T08:33:46.032Z,6.35
2023-02-27T08:36:12.512Z,6.82
2023-02-27T08:38:39.115Z,5.28
2023-02-27T08:41:05.675Z,5.97
2023-02-27T08:43:32.494Z,4.25
2023-02-27T08:45:59.054Z,5.88
2023-02-27T08:48:25.579Z,3.75
2023-02-27T08:50:52.425Z,2.65
2023-02-27T08:53:18.982Z,2.53
2023-02-27T08:55:52.073Z,5.03
2023-02-27T08:58:18.757Z,2.78
2023-02-27T09:00:45.712Z,5.30
2023-02-27T09:03:12.347Z,4.22
2023-02-27T09:05:42.180Z,5.20
2023-02-27T09:08:09.203Z,3.38
2023-02-27T09:10:36.614Z,4.70
2023-02-27T09:13:03.237Z,5.40
2023-02-27T09:15:36.773Z,2.92
2023-02-27T09:18:06.598Z,4.40
2023-02-27T09:20:37.620Z,3.22
2023-02-27T09:23:07.804Z,6.20
2023-02-27T09:25:34.252Z,3.50
2023-02-27T09:28:00.834Z,2.72
2023-02-27T09:30:27.648Z,2.78
2023-02-27T09:32:54.275Z,3.53
2023-02-27T09:35:21.026Z,3.33
2023-02-27T09:37:49.857Z,2.90
2023-02-27T09:40:30.946Z,3.63
2023-02-27T09:43:04.173Z,5.30
2023-02-27T09:45:39.117Z,4.45
2023-02-27T09:48:13.489Z,2.85
2023-02-27T09:50:44.662Z,5.50
2023-02-27T09:53:19.192Z,6.07
2023-02-27T09:55:46.493Z,3.78
2023-02-27T09:58:41.864Z,14.07
2023-02-27T10:01:24.558Z,5.78
2023-02-27T10:04:03.461Z,5.13
2023-02-27T10:06:50.104Z,4.32
2023-02-27T10:09:19.606Z,4.25
2023-02-27T10:12:01.194Z,3.78
2023-02-27T10:14:33.604Z,3.35
2023-02-27T10:17:02.595Z,5.63
2023-02-27T10:19:32.171Z,4.53
2023-02-27T10:22:00.479Z,4.32
2023-02-27T10:24:40.701Z,5.00
2023-02-27T10:27:17.058Z,4.75
2023-02-27T10:29:43.640Z,4.07
2023-02-27T10:32:23.406Z,5.05
2023-02-27T10:35:07.546Z,4.95
2023-02-27T10:37:36.200Z,4.60
2023-02-27T10:40:04.820Z,6.97
2023-02-27T10:42:36.387Z,4.53
2023-02-27T10:45:04.486Z,4.65
2023-02-27T10:47:31.073Z,4.55
2023-02-27T10:50:00.396Z,5.35
2023-02-27T10:52:27.092Z,4.25
2023-02-27T10:54:54.293Z,5.43
2023-02-27T10:57:30.518Z,6.65
2023-02-27T11:00:06.777Z,3.30
2023-02-27T11:02:40.980Z,3.10
2023-02-27T11:05:26.258Z,5.13
2023-02-27T11:07:52.996Z,3.75
2023-02-27T11:10:29.102Z,5.38
2023-02-27T11:13:08.951Z,4.97
2023-02-27T11:15:38.007Z,3.90
2023-02-27T11:18:28.606Z,6.22
2023-02-27T11:21:27.276Z,3.80
2023-02-27T11:24:00.807Z,3.60
2023-02-27T11:26:33.456Z,3.55
2023-02-27T11:29:20.037Z,2.63
2023-02-27T11:31:56.742Z,3.53
2023-02-27T11:34:29.278Z,3.05
2023-02-27T11:37:00.588Z,4.57
2023-02-27T11:39:37.138Z,6.60
2023-02-27T11:42:17.535Z,3.25
2023-02-27T11:44:55.233Z,7.25
2023-02-27T11:47:35.197Z,8.07
2023-02-27T11:50:28.610Z,4.57
2023-02-27T11:53:07.383Z,5.90
2023-02-27T11:55:34.524Z,6.10
2023-02-27T11:58:04.843Z,6.88
2023-02-27T12:00:38.274Z,4.43
2023-02-27T12:03:20.179Z,6.95
2023-02-27T12:05:59.048Z,6.78
2023-02-27T12:08:45.976Z,5.75
2023-02-27T12:11:35.481Z,4.55
2023-02-27T12:14:15.471Z,5.45
2023-02-27T12:16:50.653Z,5.10
2023-02-27T12:19:31.726Z,6.50
2023-02-27T12:22:06.702Z,5.82
2023-02-27T12:24:44.584Z,5.90
2023-02-27T12:27:26.782Z,5.68
2023-02-27T12:30:02.468Z,7.18
2023-02-27T12:32:32.256Z,11.98
2023-02-27T12:35:23.496Z,6.35
2023-02-27T12:37:50.007Z,5.07
2023-02-27T12:40:18.146Z,4.63
2023-02-27T12:43:10.877Z,6.80
2023-02-27T12:45:40.872Z,4.68
2023-02-27T12:48:23.577Z,5.50
2023-02-27T12:50:56.898Z,8.80
2023-02-27T12:54:02.329Z,4.38
2023-02-27T12:56:48.871Z,4.30
2023-02-27T12:59:44.262Z,4.70
2023-02-27T13:02:46.083Z,7.22
2023-02-27T13:05:37.196Z,8.85
2023-02-27T13:08:26.614Z,25.63
2023-02-27T13:11:07.668Z,5.00
2023-02-27T13:13:47.559Z,9.35
2023-02-27T13:16:21.886Z,4.15
2023-02-27T13:18:55.578Z,4.90
2023-02-27T13:21:30.620Z,4.18
2023-02-27T13:24:31.594Z,5.78
2023-02-27T13:27:03.363Z,6.53
2023-02-27T13:29:55.094Z,3.92
2023-02-27T13:32:42.657Z,3.17
2023-02-27T13:35:21.559Z,3.67
2023-02-27T13:37:58.080Z,2.65
2023-02-27T13:40:38.054Z,5.78
2023-02-27T13:43:46.364Z,5.20
2023-02-27T13:46:22.103Z,5.78
2023-02-27T13:48:53.642Z,5.30
2023-02-27T13:51:53.610Z,6.72
2023-02-27T13:54:25.601Z,6.13
2023-02-27T13:57:07.609Z,5.03
2023-02-27T13:59:39.948Z,4.75
2023-02-27T14:02:12.617Z,9.70
2023-02-27T14:04:47.971Z,8.30
2023-02-27T14:07:21.482Z,5.28
2023-02-27T14:09:50.681Z,5.05
2023-02-27T14:12:45.577Z,8.25
2023-02-27T14:15:21.898Z,7.35
2023-02-27T14:17:54.633Z,8.65
2023-02-27T14:20:30.306Z,8.10
2023-02-27T14:23:14.849Z,8.75
2023-02-27T14:25:47.100Z,5.55
2023-02-27T14:28:48.991Z,8.00
2023-02-27T14:31:21.002Z,5.55
2023-02-27T14:33:48.733Z,6.47
2023-02-27T14:36:29.801Z,6.70
2023-02-27T14:38:57.978Z,6.90
2023-02-27T14:41:49.543Z,7.28
2023-02-27T14:44:23.446Z,6.30
2023-02-27T14:46:54.192Z,4.63
2023-02-27T14:49:39.005Z,6.95
2023-02-27T14:52:21.345Z,7.68
2023-02-27T14:54:49.505Z,10.32
2023-02-27T14:57:26.679Z,5.45
2023-02-27T14:59:54.382Z,9.18
2023-02-27T15:02:28.020Z,6.60
2023-02-27T15:05:00.645Z,10.23
2023-02-27T15:07:30.002Z,7.28
2023-02-27T15:09:59.087Z,9.85
2023-02-27T15:12:26.663Z,6.35
2023-02-27T15:14:55.522Z,6.18
2023-02-27T15:17:28.662Z,7.22
2023-02-27T15:19:59.148Z,8.10
2023-02-27T15:22:38.520Z,7.10
2023-02-27T15:25:07.876Z,5.78
2023-02-27T15:27:37.098Z,6.82
2023-02-27T15:30:04.595Z,5.68
2023-02-27T15:32:33.949Z,4.32
2023-02-27T15:35:05.651Z,10.70
2023-02-27T15:37:33.599Z,7.47
2023-02-27T15:40:01.009Z,8.25
2023-02-27T15:42:30.717Z,8.95
2023-02-27T15:44:58.512Z,5.32
2023-02-27T15:47:27.742Z,5.63
2023-02-27T15:50:07.271Z,5.53
2023-02-27T15:52:41.722Z,6.13
2023-02-27T15:55:16.726Z,4.80
2023-02-27T15:57:56.581Z,7.45
2023-02-27T16:00:30.565Z,11.30
2023-02-27T16:02:58.512Z,7.05
2023-02-27T16:05:28.575Z,7.20
2023-02-27T16:07:56.512Z,7.47
2023-02-27T16:10:43.120Z,7.35
2023-02-27T16:13:31.523Z,5.97
2023-02-27T16:16:20.817Z,8.32
2023-02-27T16:18:53.670Z,6.85
2023-02-27T16:21:22.518Z,7.70
2023-02-27T16:23:49.869Z,8.18
2023-02-27T16:26:36.869Z,5.70
2023-02-27T16:29:17.979Z,7.90
2023-02-27T16:31:50.911Z,8.52
2023-02-27T16:34:44.562Z,7.70
2023-02-27T16:39:52.327Z,8.85
2023-02-27T16:42:19.334Z,10.30
2023-02-27T16:44:46.344Z,8.15
2023-02-27T16:47:12.928Z,9.38
2023-02-27T16:49:40.354Z,7.93
2023-02-27T16:52:09.479Z,8.65
2023-02-27T16:54:36.711Z,9.68
2023-02-27T16:57:03.804Z,4.70
2023-02-27T16:59:35.140Z,6.13
2023-02-27T17:02:06.825Z,7.35
2023-02-27T17:04:33.639Z,10.65
2023-02-27T17:07:02.021Z,8.35
2023-02-27T17:09:29.230Z,6.88
2023-02-27T17:11:56.614Z,10.50
2023-02-27T17:14:24.740Z,6.57
2023-02-27T17:16:51.537Z,5.05
2023-02-27T17:19:21.098Z,4.38
2023-02-27T17:21:47.839Z,3.55
2023-02-27T17:24:14.311Z,3.97
2023-02-27T17:26:40.935Z,5.10
2023-02-27T17:29:09.620Z,4.35
2023-02-27T17:31:37.332Z,3.83
2023-02-27T17:34:05.369Z,5.32
2023-02-27T17:36:34.661Z,5.82
2023-02-27T17:39:01.902Z,4.85
2023-02-27T17:41:29.814Z,4.53
2023-02-27T17:43:57.018Z,6.97
2023-02-27T17:46:26.413Z,5.78
2023-02-27T17:48:54.895Z,4.05
2023-02-27T17:51:22.617Z,4.43
2023-02-27T17:53:49.745Z,6.25
2023-02-27T17:56:16.784Z,5.93
2023-02-27T17:58:45.503Z,5.45
2023-02-27T18:01:20.379Z,4.35
2023-02-27T18:03:47.849Z,4.63
2023-02-27T18:06:14.835Z,7.53
2023-02-27T18:08:41.653Z,5.75
2023-02-27T18:11:12.811Z,8.63
2023-02-27T18:13:40.198Z,13.10
2023-02-27T18:16:07.262Z,11.75
2023-02-27T18:18:38.560Z,11.05
2023-02-27T18:21:11.298Z,10.48
2023-02-27T18:23:38.024Z,12.45
2023-02-27T18:26:07.080Z,5.75
2023-02-27T18:28:36.673Z,5.85
2023-02-27T18:31:04.553Z,10.20
2023-02-27T18:33:31.168Z,8.40
2023-02-27T18:35:57.753Z,14.90
2023-02-27T18:38:24.279Z,7.28
2023-02-27T18:40:50.939Z,6.57
2023-02-27T18:43:17.515Z,7.05
2023-02-27T18:45:44.169Z,8.68
2023-02-27T18:48:10.684Z,8.25
2023-02-27T18:50:37.211Z,9.45
2023-02-27T18:53:03.798Z,11.88
2023-02-27T18:55:30.371Z,15.70
2023-02-27T18:57:56.924Z,16.60
2023-02-27T19:00:24.299Z,12.95
2023-02-27T19:02:51.126Z,10.73
2023-02-27T19:05:18.179Z,9.60
2023-02-27T19:07:45.207Z,8.23
2023-02-27T19:10:12.713Z,8.55
2023-02-27T19:12:40.453Z,10.25
2023-02-27T19:15:07.805Z,14.45
2023-02-27T19:17:35.493Z,8.55
2023-02-27T19:20:02.570Z,9.95
2023-02-27T19:22:30.385Z,12.10
2023-02-27T19:24:57.218Z,11.25
2023-02-27T19:27:24.457Z,10.45
2023-02-27T19:29:52.621Z,12.85
2023-02-27T19:32:19.510Z,10.75
2023-02-27T19:34:47.062Z,6.57
2023-02-27T19:37:15.923Z,8.02
2023-02-27T19:39:42.766Z,6.93
2023-02-27T19:42:09.600Z,5.30
2023-02-27T19:44:36.049Z,5.20
2023-02-27T19:47:02.720Z,7.95
2023-02-27T19:49:29.615Z,6.32
2023-02-27T19:51:56.353Z,6.70
2023-02-27T19:54:24.011Z,10.63
2023-02-27T19:56:50.753Z,7.30
2023-02-27T19:59:18.153Z,5.30
2023-02-27T20:01:45.161Z,7.07
2023-02-27T20:04:12.793Z,5.63
2023-02-27T20:06:42.424Z,7.55
2023-02-27T20:09:15.093Z,5.95
2023-02-27T20:11:44.682Z,8.20
2023-02-27T20:14:14.067Z,8.50
2023-02-27T20:16:40.881Z,6.53
2023-02-27T20:19:10.441Z,11.35
2023-02-27T20:21:37.814Z,9.65
2023-02-27T20:24:04.738Z,10.05
2023-02-27T20:26:34.084Z,15.50
2023-02-27T20:29:15.565Z,14.75
2023-02-27T20:31:43.966Z,15.48
2023-02-27T20:34:12.195Z,8.85
2023-02-27T20:36:39.476Z,9.27
2023-02-27T20:39:06.941Z,8.45
2023-02-27T20:41:36.817Z,9.00
2023-02-27T20:44:04.908Z,10.00
2023-02-27T20:46:31.707Z,9.13
2023-02-27T20:49:01.784Z,9.60
2023-02-27T20:51:31.904Z,8.63
2023-02-27T20:53:59.788Z,12.68
2023-02-27T20:56:35.050Z,12.05
2023-02-27T20:59:04.289Z,11.23
2023-02-27T21:01:31.320Z,26.63
2023-02-27T21:03:58.634Z,32.55
2023-02-27T21:06:26.421Z,57.10
2023-02-27T21:08:55.191Z,31.93
2023-02-27T21:11:28.051Z,14.73
2023-02-27T21:13:59.055Z,15.32
2023-02-27T21:16:25.887Z,16.43
2023-02-27T21:18:53.556Z,13.10
2023-02-27T21:21:24.719Z,19.97
2023-02-27T21:23:53.287Z,18.83
2023-02-27T21:26:22.324Z,19.73
2023-02-27T21:28:54.312Z,18.80
2023-02-27T21:31:22.584Z,19.43
2023-02-27T21:33:54.175Z,13.37
2023-02-27T21:36:37.160Z,10.57
2023-02-27T21:39:06.257Z,11.23
2023-02-27T21:41:34.522Z,8.60
2023-02-27T21:44:02.487Z,9.83
2023-02-27T21:46:29.204Z,11.03
2023-02-27T21:48:56.181Z,12.83
2023-02-27T21:51:38.277Z,10.57
2023-02-27T21:54:05.585Z,13.90
2023-02-27T21:56:32.203Z,10.77
2023-02-27T21:59:02.231Z,8.82
2023-02-27T22:01:30.639Z,13.05
2023-02-27T22:03:58.028Z,11.60
2023-02-27T22:06:26.802Z,9.55
2023-02-27T22:08:57.208Z,10.07
2023-02-27T22:11:25.698Z,10.07
2023-02-27T22:13:53.028Z,6.97
2023-02-27T22:16:20.154Z,7.32
2023-02-27T22:18:46.876Z,7.57
2023-02-27T22:21:25.133Z,8.35
2023-02-27T22:23:52.139Z,11.73
2023-02-27T22:26:24.364Z,9.95
2023-02-27T22:28:52.575Z,11.40
2023-02-27T22:31:21.639Z,13.82
2023-02-27T22:33:50.227Z,9.40
2023-02-27T22:36:35.883Z,10.13
2023-02-27T22:39:02.851Z,8.45
2023-02-27T22:41:35.193Z,6.25
2023-02-27T22:44:02.316Z,8.68
2023-02-27T22:46:31.485Z,7.95
2023-02-27T22:49:03.908Z,7.72
2023-02-27T22:51:31.164Z,6.38
2023-02-27T22:54:03.771Z,8.63
2023-02-27T22:56:31.009Z,6.78
2023-02-27T22:58:57.592Z,5.95
2023-02-27T23:01:29.264Z,6.65
2023-02-27T23:03:59.659Z,7.22
2023-02-27T23:06:29.161Z,8.98
2023-02-27T23:08:55.737Z,8.40
2023-02-27T23:11:22.531Z,8.93
2023-02-27T23:13:49.129Z,10.20
2023-02-27T23:16:15.794Z,16.00
2023-02-27T23:18:50.711Z,18.40
2023-02-27T23:21:19.397Z,16.15
2023-02-27T23:23:46.157Z,12.98
2023-02-27T23:26:13.350Z,7.20
2023-02-27T23:28:42.828Z,8.45
2023-02-27T23:31:09.847Z,8.57
2023-02-27T23:33:37.232Z,9.27
2023-02-27T23:36:04.563Z,6.32
2023-02-27T23:38:34.259Z,9.73
2023-02-27T23:41:08.545Z,7.05
2023-02-27T23:43:37.688Z,6.63
2023-02-27T23:46:11.766Z,5.95
2023-02-27T23:48:41.321Z,5.13
2023-02-27T23:51:08.888Z,4.25
2023-02-27T23:53:37.348Z,9.23
2023-02-27T23:56:16.746Z,5.53
2023-02-27T23:58:44.510Z,5.43
